Time;durP1;ratioP1;P1;durP2;ratioP2;P2;SDS_P1;SDS_P2;PMS_P1;PMS_P2;Temp;Humidity;BMP_temperature;BMP_pressure;BME280_temperature;BME280_humidity;BME280_pressure;Samples;Min_cycle;Max_cycle;Signal;HPM_P1;HPM_P2
2022/10/24 00:01:19;;;;;;;7.82;4.20;;;;;;;14.92;100.00;100455.16;5109005;27;20095;-65
2022/10/24 00:03:46;;;;;;;7.32;4.10;;;;;;;14.94;100.00;100463.78;5107337;27;20047;-65
2022/10/24 00:06:13;;;;;;;10.00;4.32;;;;;;;14.49;100.00;100481.19;5103118;27;20035;-65
2022/10/24 00:08:43;;;;;;;7.72;4.40;;;;;;;14.30;100.00;100480.75;5108791;27;20055;-65
2022/10/24 00:11:13;;;;;;;8.70;4.50;;;;;;;14.44;100.00;100485.97;5101179;27;20043;-66
2022/10/24 00:13:41;;;;;;;10.10;4.65;;;;;;;14.80;100.00;100474.53;5110149;27;20063;-66
2022/10/24 00:16:08;;;;;;;13.00;5.35;;;;;;;14.53;100.00;100477.38;5103693;27;20127;-66
2022/10/24 00:18:34;;;;;;;6.85;4.72;;;;;;;14.72;100.00;100478.66;5098798;27;20043;-66
2022/10/24 00:21:01;;;;;;;10.57;4.60;;;;;;;14.98;100.00;100469.69;5109117;27;20051;-66
2022/10/24 00:23:28;;;;;;;6.80;4.28;;;;;;;14.84;100.00;100483.91;5108148;27;20514;-65
2022/10/24 00:26:00;;;;;;;10.80;4.40;;;;;;;14.58;100.00;100477.88;5099018;27;20039;-66
2022/10/24 00:28:27;;;;;;;10.07;5.03;;;;;;;14.44;100.00;100470.13;5109150;27;20046;-65
2022/10/24 00:30:53;;;;;;;7.10;4.38;;;;;;;14.73;100.00;100494.41;5108340;27;20059;-65
2022/10/24 00:33:20;;;;;;;7.47;4.50;;;;;;;14.76;100.00;100499.47;5090988;27;20047;-65
2022/10/24 00:35:46;;;;;;;7.80;4.53;;;;;;;14.55;100.00;100479.91;5109032;27;20092;-65
2022/10/24 00:38:13;;;;;;;12.05;5.30;;;;;;;14.77;100.00;100497.66;5108124;27;20223;-65
2022/10/24 00:40:40;;;;;;;10.68;5.07;;;;;;;14.74;100.00;100475.00;5098396;27;20637;-65
2022/10/24 00:43:14;;;;;;;13.45;5.25;;;;;;;14.87;100.00;100474.91;5108874;27;20054;-65
2022/10/24 00:45:45;;;;;;;7.35;5.03;;;;;;;14.83;100.00;100473.44;5095053;27;20039;-65
2022/10/24 00:48:17;;;;;;;11.45;5.47;;;;;;;14.76;100.00;100482.78;5096002;27;20611;-65
2022/10/24 00:50:44;;;;;;;;;;;;;;;14.33;100.00;100491.13;5104955;27;20043;-65
2022/10/24 00:53:11;;;;;;;15.27;5.05;;;;;;;14.74;100.00;100495.25;5097652;27;19926;-65
2022/10/24 00:55:38;;;;;;;11.60;5.32;;;;;;;14.86;100.00;100486.41;5107100;27;20452;-65
2022/10/24 00:58:06;;;;;;;8.30;5.20;;;;;;;15.08;100.00;100479.44;5108011;27;20680;-65
2022/10/24 01:00:34;;;;;;;12.77;5.57;;;;;;;15.33;99.84;100483.75;5096107;27;20047;-65
2022/10/24 01:03:02;;;;;;;9.50;5.28;;;;;;;15.21;100.00;100484.66;5088991;28;20050;-65
2022/10/24 01:05:35;;;;;;;9.57;5.05;;;;;;;15.52;99.22;100481.41;5103007;27;20075;-65
2022/10/24 01:08:16;;;;;;;8.50;5.13;;;;;;;15.44;99.68;100481.16;5097042;27;20047;-65
2022/10/24 01:10:52;;;;;;;7.35;4.40;;;;;;;15.78;96.38;100489.97;5107164;27;20050;-65
2022/10/24 01:13:29;;;;;;;11.20;4.68;;;;;;;15.53;98.25;100498.13;5097750;27;20526;-65
2022/10/24 01:16:05;;;;;;;6.75;4.10;;;;;;;15.73;96.57;100483.38;5107919;27;20414;-65
2022/10/24 01:18:37;;;;;;;8.15;4.50;;;;;;;15.16;100.00;100480.66;5097318;27;20062;-66
2022/10/24 01:21:26;;;;;;;6.65;4.13;;;;;;;14.96;100.00;100487.44;5106958;27;20050;-66
2022/10/24 01:24:27;;;;;;;10.43;4.30;;;;;;;15.16;100.00;100485.94;5097559;27;20054;-66
2022/10/24 01:27:29;;;;;;;9.32;4.20;;;;;;;15.16;100.00;100483.31;5082957;27;20035;-66
2022/10/24 01:30:05;;;;;;;9.23;4.63;;;;;;;15.08;100.00;100468.88;5099235;27;20035;-66
2022/10/24 01:32:37;;;;;;;12.30;4.68;;;;;;;14.97;100.00;100476.75;5102494;27;20036;-66
2022/10/24 01:35:11;;;;;;;7.47;4.53;;;;;;;14.91;100.00;100489.56;5108190;27;20043;-66
2022/10/24 01:37:44;;;;;;;11.50;5.00;;;;;;;15.00;100.00;100467.78;5107921;27;20047;-66
2022/10/24 01:40:16;;;;;;;6.68;4.30;;;;;;;15.28;100.00;100474.47;5108000;27;20039;-66
2022/10/24 01:42:45;;;;;;;11.48;5.45;;;;;;;15.02;100.00;100465.88;5076818;28;20054;-66
2022/10/24 01:45:21;;;;;;;8.68;4.88;;;;;;;15.31;100.00;100459.25;5086413;28;20050;-66
2022/10/24 01:47:52;;;;;;;11.93;5.22;;;;;;;15.10;100.00;100461.69;5077544;28;20051;-66
2022/10/24 01:50:22;;;;;;;7.45;5.32;;;;;;;14.63;100.00;100457.28;5087035;28;20106;-66
2022/10/24 01:52:50;;;;;;;13.10;5.65;;;;;;;14.52;100.00;100459.84;5094063;27;20043;-66
2022/10/24 01:55:17;;;;;;;9.45;4.93;;;;;;;14.63;100.00;100457.28;5096553;27;20047;-66
2022/10/24 01:57:43;;;;;;;9.27;5.43;;;;;;;14.73;100.00;100451.34;5107002;27;20047;-66
2022/10/24 02:00:18;;;;;;;10.18;5.35;;;;;;;14.67;100.00;100439.41;5108312;27;20050;-66
2022/10/24 02:02:48;;;;;;;11.32;5.10;;;;;;;15.05;100.00;100439.22;5096620;27;20039;-66
2022/10/24 02:05:19;;;;;;;11.60;4.80;;;;;;;14.90;100.00;100443.84;5117269;27;20070;-66
2022/10/24 02:07:48;;;;;;;11.70;4.90;;;;;;;15.02;100.00;100442.94;5112880;27;20072;-67
2022/10/24 02:10:21;;;;;;;11.82;4.65;;;;;;;15.15;100.00;100442.84;5107457;27;20039;-66
2022/10/24 02:12:52;;;;;;;9.40;5.07;;;;;;;14.93;100.00;100435.69;5107958;27;20047;-66
2022/10/24 02:15:24;;;;;;;10.18;4.93;;;;;;;15.06;100.00;100446.19;5097886;27;20039;-66
2022/10/24 02:17:51;;;;;;;18.35;4.55;;;;;;;14.80;100.00;100445.50;5107558;27;20088;-66
2022/10/24 02:20:24;;;;;;;12.13;5.38;;;;;;;14.98;100.00;100440.63;5107780;27;20462;-66
2022/10/24 02:22:57;;;;;;;7.10;5.00;;;;;;;14.77;100.00;100448.38;5127384;27;20497;-66
2022/10/24 02:25:30;;;;;;;9.00;4.70;;;;;;;14.93;100.00;100445.41;5127773;27;20107;-66
2022/10/24 02:28:03;;;;;;;8.05;4.70;;;;;;;15.11;99.64;100452.00;5107007;27;20071;-66
2022/10/24 02:30:37;;;;;;;10.43;5.10;;;;;;;14.91;100.00;100449.97;5110282;27;20050;-67
2022/10/24 02:33:04;;;;;;;9.68;5.75;;;;;;;14.73;100.00;100452.19;5102545;27;20394;-66
2022/10/24 02:35:34;;;;;;;8.95;4.53;;;;;;;14.59;100.00;100453.19;5111793;27;20509;-66
2022/10/24 02:38:09;;;;;;;7.90;4.95;;;;;;;14.47;100.00;100454.06;5111061;27;20043;-66
2022/10/24 02:40:36;;;;;;;10.70;5.38;;;;;;;14.32;100.00;100451.66;5093034;27;20051;-66
2022/10/24 02:43:04;;;;;;;10.35;5.38;;;;;;;14.32;100.00;100452.50;5094881;27;20514;-66
2022/10/24 02:45:35;;;;;;;9.00;5.32;;;;;;;14.31;100.00;100461.38;5107609;27;20047;-66
2022/10/24 02:48:06;;;;;;;11.80;5.57;;;;;;;14.37;100.00;100450.44;5111078;27;20047;-66
2022/10/24 02:50:33;;;;;;;10.35;5.40;;;;;;;14.58;100.00;100451.50;5110662;27;20148;-66
2022/10/24 02:52:59;;;;;;;9.75;5.93;;;;;;;14.49;100.00;100456.59;5101059;27;20047;-66
2022/10/24 02:55:26;;;;;;;13.30;5.43;;;;;;;14.55;100.00;100443.81;5111821;27;20038;-66
2022/10/24 02:57:52;;;;;;;9.35;5.38;;;;;;;14.62;100.00;100438.94;5111292;27;20055;-66
2022/10/24 03:00:19;;;;;;;9.30;5.50;;;;;;;14.58;100.00;100435.66;5095636;27;20437;-66
2022/10/24 03:02:46;;;;;;;11.55;5.38;;;;;;;14.39;100.00;100422.13;5110891;27;20444;-66
2022/10/24 03:05:13;;;;;;;10.52;5.43;;;;;;;14.57;100.00;100422.56;5110670;27;20684;-66
2022/10/24 03:07:39;;;;;;;11.13;5.47;;;;;;;14.73;99.36;100419.66;5099885;27;20256;-66
2022/10/24 03:10:06;;;;;;;12.52;6.10;;;;;;;14.29;100.00;100422.88;5108828;27;20488;-66
2022/10/24 03:12:33;;;;;;;10.20;6.20;;;;;;;14.51;100.00;100417.75;5109412;27;20058;-66
2022/10/24 03:14:59;;;;;;;13.48;6.32;;;;;;;14.06;100.00;100425.34;5100122;27;20035;-66
2022/10/24 03:17:25;;;;;;;8.98;6.18;;;;;;;14.18;100.00;100415.75;5110716;27;20047;-65
2022/10/24 03:19:53;;;;;;;10.70;5.55;;;;;;;14.05;100.00;100423.66;5108207;27;20043;-66
2022/10/24 03:22:20;;;;;;;12.70;6.90;;;;;;;13.87;100.00;100417.06;5100741;27;20233;-66
2022/10/24 03:24:46;;;;;;;14.27;5.85;;;;;;;13.93;100.00;100413.16;5109529;27;20054;-66
2022/10/24 03:27:13;;;;;;;9.63;5.93;;;;;;;13.99;100.00;100423.25;5108223;27;20101;-66
2022/10/24 03:29:39;;;;;;;12.95;6.30;;;;;;;13.77;100.00;100423.09;5100294;27;20047;-66
2022/10/24 03:32:06;;;;;;;10.57;5.55;;;;;;;13.48;100.00;100411.94;5110616;27;20051;-66
2022/10/24 03:34:32;;;;;;;10.60;6.05;;;;;;;13.83;100.00;100412.09;5122416;27;20491;-66
2022/10/24 03:37:00;;;;;;;12.25;6.70;;;;;;;13.96;100.00;100415.56;5106072;27;20491;-66
2022/10/24 03:39:27;;;;;;;12.57;5.80;;;;;;;13.62;100.00;100417.94;5105040;27;20069;-66
2022/10/24 03:41:53;;;;;;;9.82;5.70;;;;;;;13.50;100.00;100426.69;5105767;27;20436;-66
2022/10/24 03:44:20;;;;;;;12.75;6.70;;;;;;;13.50;100.00;100424.03;5106739;27;20047;-66
2022/10/24 03:46:46;;;;;;;11.30;6.18;;;;;;;13.68;100.00;100423.72;5109640;27;20052;-66
2022/10/24 03:49:12;;;;;;;10.27;6.18;;;;;;;14.05;100.00;100418.41;5108603;27;20047;-66
2022/10/24 03:51:39;;;;;;;9.50;5.88;;;;;;;13.93;100.00;100423.72;5110803;27;20047;-67
2022/10/24 03:54:07;;;;;;;12.00;6.13;;;;;;;13.88;100.00;100421.38;5103622;27;20043;-66
2022/10/24 03:56:33;;;;;;;7.70;5.25;;;;;;;13.58;100.00;100419.09;5109138;27;20050;-66
2022/10/24 03:58:59;;;;;;;7.93;5.40;;;;;;;13.81;100.00;100428.03;5110335;27;20035;-66
2022/10/24 04:01:26;;;;;;;9.75;5.50;;;;;;;13.85;100.00;100431.31;5099364;27;20066;-66
2022/10/24 04:03:52;;;;;;;8.25;5.32;;;;;;;13.65;100.00;100430.88;5109138;27;20050;-66
2022/10/24 04:06:19;;;;;;;12.23;5.90;;;;;;;13.71;100.00;100434.06;5110048;27;20050;-66
2022/10/24 04:08:45;;;;;;;9.02;5.40;;;;;;;13.69;100.00;100425.41;5098376;27;20062;-66
2022/10/24 04:11:13;;;;;;;17.08;5.90;;;;;;;13.88;100.00;100426.66;5107109;27;20038;-66
2022/10/24 04:13:40;;;;;;;11.20;4.97;;;;;;;13.98;100.00;100432.97;5109937;27;20047;-66
2022/10/24 04:16:07;;;;;;;9.32;5.18;;;;;;;14.08;100.00;100436.63;5099047;27;20534;-66
2022/10/24 04:18:34;;;;;;;11.32;5.25;;;;;;;13.98;100.00;100437.38;5108234;27;20070;-68
2022/10/24 04:21:00;;;;;;;9.63;4.95;;;;;;;13.96;100.00;100431.41;5109088;27;20100;-66
2022/10/24 04:23:27;;;;;;;7.43;4.97;;;;;;;13.93;100.00;100424.53;5098491;27;20081;-66
2022/10/24 04:25:53;;;;;;;13.43;5.05;;;;;;;13.98;100.00;100427.69;5109306;27;20661;-66
2022/10/24 04:28:21;;;;;;;11.05;5.25;;;;;;;14.21;100.00;100433.13;5109618;27;20050;-66
2022/10/24 04:30:54;;;;;;;10.95;5.68;;;;;;;13.71;100.00;100439.34;5097750;27;20050;-66
2022/10/24 04:33:20;;;;;;;13.10;4.43;;;;;;;14.09;100.00;100440.94;5107252;27;20035;-66
2022/10/24 04:35:48;;;;;;;9.35;4.82;;;;;;;13.98;100.00;100447.94;5118127;27;20054;-66
2022/10/24 04:38:15;;;;;;;11.27;5.43;;;;;;;13.92;100.00;100432.56;5108031;27;20074;-66
2022/10/24 04:40:44;;;;;;;8.00;4.70;;;;;;;13.85;100.00;100433.94;5106667;27;20047;-66
2022/10/24 04:43:11;;;;;;;8.15;4.53;;;;;;;14.07;100.00;100434.97;5098667;27;20043;-66
2022/10/24 04:45:38;;;;;;;8.55;4.43;;;;;;;14.13;100.00;100442.44;5108309;27;20099;-66
2022/10/24 04:48:06;;;;;;;15.32;5.47;;;;;;;14.50;100.00;100435.38;5108073;27;20047;-66
2022/10/24 04:50:32;;;;;;;7.68;4.22;;;;;;;14.14;100.00;100448.53;5097468;27;20054;-67
2022/10/24 04:53:00;;;;;;;10.60;4.82;;;;;;;14.00;100.00;100441.63;5108795;27;20073;-66
2022/10/24 04:55:27;;;;;;;12.55;5.00;;;;;;;14.08;100.00;100448.97;5108172;27;20091;-66
2022/10/24 04:57:53;;;;;;;11.25;4.28;;;;;;;14.25;100.00;100439.88;5098033;27;20039;-66
2022/10/24 05:00:20;;;;;;;8.85;4.03;;;;;;;14.15;100.00;100442.31;5107688;27;20051;-66
2022/10/24 05:02:48;;;;;;;9.20;4.07;;;;;;;14.14;100.00;100440.63;5103727;27;20066;-66
2022/10/24 05:05:15;;;;;;;6.50;3.80;;;;;;;14.28;100.00;100443.13;5098765;27;20043;-66
2022/10/24 05:07:42;;;;;;;11.98;4.05;;;;;;;14.37;100.00;100437.25;5108944;27;20079;-66
2022/10/24 05:10:09;;;;;;;6.75;3.75;;;;;;;14.34;100.00;100440.06;5105928;27;20047;-66
2022/10/24 05:12:36;;;;;;;11.68;4.43;;;;;;;14.58;100.00;100429.53;5097976;27;20088;-66
2022/10/24 05:15:03;;;;;;;15.60;4.45;;;;;;;14.68;100.00;100427.06;5108249;27;20470;-66
2022/10/24 05:17:29;;;;;;;13.27;3.95;;;;;;;15.05;97.12;100423.38;5107375;27;20043;-66
2022/10/24 05:19:57;;;;;;;6.68;3.95;;;;;;;15.21;95.45;100420.44;5096939;27;20054;-66
2022/10/24 05:22:24;;;;;;;7.55;3.70;;;;;;;15.51;93.82;100421.63;5108939;27;20043;-66
2022/10/24 05:24:50;;;;;;;7.47;3.58;;;;;;;15.54;92.24;100418.72;5107286;27;20047;-66
2022/10/24 05:27:20;;;;;;;10.77;3.88;;;;;;;15.73;90.46;100423.44;5085223;27;20043;-66
2022/10/24 05:29:47;;;;;;;6.55;3.75;;;;;;;15.37;91.62;100418.31;5107548;27;20053;-66
2022/10/24 05:32:13;;;;;;;8.60;3.67;;;;;;;15.11;92.54;100415.03;5106914;27;20051;-66
2022/10/24 05:34:39;;;;;;;8.27;4.43;;;;;;;15.18;92.39;100424.16;5097668;27;20439;-66
2022/10/24 05:37:07;;;;;;;12.30;3.30;;;;;;;15.09;92.45;100414.28;5092879;27;20051;-66
2022/10/24 05:39:34;;;;;;;80.28;6.18;;;;;;;15.01;92.21;100414.00;5107827;27;20051;-66
2022/10/24 05:42:01;;;;;;;108.97;6.00;;;;;;;14.94;92.69;100424.19;5088352;27;20051;-66
2022/10/24 05:44:28;;;;;;;6.18;3.42;;;;;;;15.02;92.21;100418.34;5097687;27;20487;-66
2022/10/24 05:46:54;;;;;;;10.20;4.00;;;;;;;15.07;91.76;100419.69;5107559;27;20050;-66
2022/10/24 05:49:21;;;;;;;8.65;3.80;;;;;;;14.88;93.29;100418.53;5097623;27;20047;-66
2022/10/24 05:51:48;;;;;;;11.77;4.20;;;;;;;15.17;93.08;100418.97;5104964;27;20531;-66
2022/10/24 05:54:16;;;;;;;8.05;3.85;;;;;;;14.77;94.39;100416.69;5091391;27;20073;-66
2022/10/24 05:56:42;;;;;;;9.15;4.28;;;;;;;14.43;98.06;100415.69;5080240;27;20066;-66
2022/10/24 05:59:09;;;;;;;8.25;4.40;;;;;;;14.77;95.68;100414.06;5107333;27;20057;-66
2022/10/24 06:01:35;;;;;;;14.65;4.25;;;;;;;15.08;93.46;100420.50;5107335;27;20091;-66
2022/10/24 06:04:02;;;;;;;12.70;4.88;;;;;;;15.34;93.48;100413.25;5092438;27;20047;-66
2022/10/24 06:06:28;;;;;;;8.35;5.28;;;;;;;15.37;92.67;100407.75;5108871;27;20117;-66
2022/10/24 06:08:55;;;;;;;11.38;4.55;;;;;;;15.16;93.76;100418.13;5111420;27;20047;-67
2022/10/24 06:11:22;;;;;;;7.40;3.50;;;;;;;15.14;92.52;100420.06;5105840;27;20093;-67
2022/10/24 06:13:49;;;;;;;8.50;4.35;;;;;;;14.87;92.23;100422.13;5105425;27;20051;-66
2022/10/24 06:16:15;;;;;;;5.78;3.58;;;;;;;14.76;92.84;100422.91;5110657;27;20042;-65
2022/10/24 06:18:42;;;;;;;15.18;4.10;;;;;;;14.72;94.07;100431.16;5108304;27;20047;-65
2022/10/24 06:21:09;;;;;;;12.88;4.10;;;;;;;14.68;96.70;100427.91;5100158;27;20044;-65
2022/10/24 06:23:36;;;;;;;6.00;4.32;;;;;;;14.74;97.20;100424.84;5090849;27;20039;-65
2022/10/24 06:26:08;;;;;;;12.70;4.22;;;;;;;15.10;94.89;100429.16;5103870;27;20498;-65
2022/10/24 06:28:37;;;;;;;9.90;4.47;;;;;;;15.34;94.18;100424.66;5111791;27;20559;-66
2022/10/24 06:31:04;;;;;;;12.55;5.90;;;;;;;15.51;93.83;100424.25;5111250;27;20043;-66
2022/10/24 06:33:31;;;;;;;8.77;4.80;;;;;;;15.41;92.91;100431.16;5100761;27;20046;-66
2022/10/24 06:35:59;;;;;;;10.15;4.72;;;;;;;15.23;95.55;100439.63;5111151;27;20047;-66
2022/10/24 06:38:25;;;;;;;15.93;5.88;;;;;;;15.06;96.61;100438.28;5111431;27;20047;-66
2022/10/24 06:40:52;;;;;;;20.25;6.95;;;;;;;15.18;96.73;100450.56;5100842;27;20065;-66
2022/10/24 06:43:19;;;;;;;10.15;4.20;;;;;;;15.28;97.73;100448.91;5110985;27;20043;-66
2022/10/24 06:45:47;;;;;;;9.23;4.15;;;;;;;15.30;96.65;100448.81;5110711;27;20043;-66
2022/10/24 06:48:13;;;;;;;12.75;4.63;;;;;;;15.04;99.23;100445.44;5101434;27;20050;-66
2022/10/24 06:50:40;;;;;;;6.30;3.75;;;;;;;15.51;96.64;100445.41;5110705;27;20051;-66
2022/10/24 06:53:07;;;;;;;10.95;5.07;;;;;;;15.70;95.23;100439.53;5108570;27;20502;-66
2022/10/24 06:55:33;;;;;;;8.88;3.97;;;;;;;15.81;95.56;100444.84;5100903;27;20071;-66
2022/10/24 06:58:00;;;;;;;5.15;3.17;;;;;;;15.33;97.87;100433.56;5111088;27;20096;-66
2022/10/24 07:00:26;;;;;;;12.10;4.05;;;;;;;15.68;97.38;100432.66;5109735;27;20091;-66
2022/10/24 07:02:54;;;;;;;9.07;3.28;;;;;;;15.50;97.92;100434.94;5101894;27;20047;-66
2022/10/24 07:05:21;;;;;;;12.50;4.07;;;;;;;15.45;98.36;100437.88;5109273;27;20518;-66
2022/10/24 07:07:47;;;;;;;10.27;3.33;;;;;;;15.82;96.32;100443.84;5109163;27;20404;-67
2022/10/24 07:10:14;;;;;;;6.57;3.42;;;;;;;16.09;94.23;100448.78;5099727;27;20074;-66
2022/10/24 07:12:41;;;;;;;11.63;3.28;;;;;;;15.81;96.37;100446.63;5110129;27;20066;-67
2022/10/24 07:15:09;;;;;;;15.90;3.70;;;;;;;16.16;94.67;100442.03;5112564;27;20039;-66
2022/10/24 07:17:39;;;;;;;9.75;3.55;;;;;;;15.85;95.23;100443.59;5120326;27;20057;-66
2022/10/24 07:20:08;;;;;;;16.38;3.70;;;;;;;15.77;96.57;100445.19;5125783;27;20042;-66
2022/10/24 07:22:36;;;;;;;12.80;3.75;;;;;;;16.25;93.71;100441.31;5110157;27;20043;-66
2022/10/24 07:25:03;;;;;;;8.45;3.20;;;;;;;16.11;93.73;100438.94;5099271;27;20050;-66
2022/10/24 07:27:30;;;;;;;8.95;3.05;;;;;;;16.25;92.97;100446.63;5109327;27;20043;-66
2022/10/24 07:29:57;;;;;;;7.57;3.50;;;;;;;15.84;95.56;100449.88;5109701;27;20043;-65
2022/10/24 07:32:23;;;;;;;10.52;3.10;;;;;;;15.87;95.84;100452.28;5100876;27;20043;-65
2022/10/24 07:34:50;;;;;;;20.60;3.85;;;;;;;15.71;96.81;100443.84;5109089;27;20073;-65
2022/10/24 07:37:18;;;;;;;9.13;3.53;;;;;;;15.64;97.53;100439.16;5106863;27;20047;-65
2022/10/24 07:39:45;;;;;;;13.65;3.10;;;;;;;15.57;99.15;100454.63;5098810;27;20054;-65
2022/10/24 07:42:12;;;;;;;12.85;4.53;;;;;;;15.50;99.19;100456.91;5108870;27;20050;-65
2022/10/24 07:44:38;;;;;;;14.43;3.80;;;;;;;15.80;98.07;100453.72;5110139;27;20050;-65
2022/10/24 07:47:07;;;;;;;7.75;3.40;;;;;;;15.95;97.03;100454.31;5099391;27;20135;-65
2022/10/24 07:49:34;;;;;;;11.95;3.28;;;;;;;15.90;97.23;100445.91;5106089;27;20055;-65
2022/10/24 07:52:00;;;;;;;8.35;3.13;;;;;;;16.06;96.08;100446.38;5109122;27;20077;-66
2022/10/24 07:54:28;;;;;;;8.73;3.95;;;;;;;15.79;97.84;100459.94;5098935;27;20050;-65
2022/10/24 07:56:55;;;;;;;8.98;2.58;;;;;;;15.94;96.83;100457.91;5108739;27;20386;-65
2022/10/24 07:59:21;;;;;;;11.63;3.35;;;;;;;15.87;97.15;100462.00;5109851;27;20526;-65
2022/10/24 08:01:48;;;;;;;7.15;2.97;;;;;;;16.00;97.34;100460.91;5099140;27;20051;-66
2022/10/24 08:04:14;;;;;;;9.65;2.97;;;;;;;15.95;95.91;100455.16;5113253;27;20053;-66
2022/10/24 08:06:41;;;;;;;10.57;3.08;;;;;;;15.99;95.49;100450.47;5103704;27;20054;-66
2022/10/24 08:09:08;;;;;;;8.02;2.63;;;;;;;16.27;94.04;100449.13;5098371;27;20058;-66
2022/10/24 08:11:36;;;;;;;18.95;3.05;;;;;;;16.16;94.24;100444.69;5108042;27;20487;-66
2022/10/24 08:14:03;;;;;;;8.32;3.20;;;;;;;16.33;93.26;100449.47;5108873;27;20039;-66
2022/10/24 08:16:29;;;;;;;8.95;2.60;;;;;;;16.38;92.64;100447.31;5098564;27;20145;-66
2022/10/24 08:18:57;;;;;;;11.50;2.80;;;;;;;16.43;92.64;100444.28;5108510;27;20112;-66
2022/10/24 08:21:24;;;;;;;7.47;2.90;;;;;;;16.43;92.15;100452.22;5109256;27;20066;-66
2022/10/24 08:23:53;;;;;;;14.05;2.60;;;;;;;16.75;90.86;100439.03;5098526;27;20046;-66
2022/10/24 08:26:22;;;;;;;10.80;2.50;;;;;;;16.52;91.53;100438.25;5107798;27;20095;-67
2022/10/24 08:28:50;;;;;;;8.38;2.88;;;;;;;16.63;91.87;100440.88;5108976;27;20050;-67
2022/10/24 08:31:19;;;;;;;8.70;2.80;;;;;;;16.66;91.35;100447.75;5095756;27;20080;-67
2022/10/24 08:33:46;;;;;;;7.47;3.20;;;;;;;16.66;90.71;100439.81;5087686;28;20054;-67
2022/10/24 08:36:19;;;;;;;17.20;3.00;;;;;;;16.71;90.70;100449.06;5102078;27;20054;-67
2022/10/24 08:38:45;;;;;;;12.38;3.05;;;;;;;16.52;91.04;100448.81;5108313;27;20464;-67
2022/10/24 08:41:16;;;;;;;10.85;2.92;;;;;;;16.55;92.03;100454.72;5107035;27;20072;-67
2022/10/24 08:43:43;;;;;;;6.15;2.67;;;;;;;16.55;91.17;100460.00;5099098;27;20047;-67
2022/10/24 08:46:25;;;;;;;7.10;2.53;;;;;;;16.75;90.40;100458.44;5109257;27;20047;-67
2022/10/24 08:48:56;;;;;;;19.30;2.72;;;;;;;16.70;90.72;100460.63;5105846;27;20047;-67
2022/10/24 08:51:30;;;;;;;7.18;2.50;;;;;;;16.71;90.30;100451.69;5108361;27;20043;-67
2022/10/24 08:54:00;;;;;;;7.53;3.13;;;;;;;16.68;90.64;100456.41;5108702;27;20491;-67
2022/10/24 08:56:29;;;;;;;9.15;2.42;;;;;;;17.04;88.57;100454.22;5097959;27;20113;-67
2022/10/24 08:58:57;;;;;;;13.15;2.28;;;;;;;16.98;89.44;100453.91;5094435;27;20050;-67
2022/10/24 09:01:31;;;;;;;10.57;2.35;;;;;;;16.99;89.06;100451.13;5108538;27;20043;-67
2022/10/24 09:04:03;;;;;;;10.85;2.55;;;;;;;17.00;88.93;100449.28;5098145;27;20387;-68
2022/10/24 09:06:31;;;;;;;12.23;2.40;;;;;;;16.99;88.96;100445.00;5106156;27;20046;-68
2022/10/24 09:09:00;;;;;;;16.48;3.70;;;;;;;17.16;88.81;100444.41;5090128;27;20047;-68
2022/10/24 09:11:38;;;;;;;10.05;3.25;;;;;;;17.37;86.77;100431.16;5099518;27;20716;-68
2022/10/24 09:14:12;;;;;;;8.80;2.90;;;;;;;17.57;86.06;100430.34;5093246;27;20376;-68
2022/10/24 09:16:41;;;;;;;11.95;2.63;;;;;;;17.25;87.05;100441.00;5092184;27;20432;-68
2022/10/24 09:19:13;;;;;;;9.43;2.50;;;;;;;17.16;88.14;100439.13;5087408;28;20553;-68
2022/10/24 09:21:42;;;;;;;10.07;2.33;;;;;;;17.42;86.23;100435.13;5077953;28;20051;-68
2022/10/24 09:24:17;;;;;;;9.02;2.50;;;;;;;17.67;86.05;100438.34;5101313;27;20049;-68
2022/10/24 09:26:44;;;;;;;8.75;3.05;;;;;;;17.25;87.66;100438.38;5076894;27;20048;-68
2022/10/24 09:29:11;;;;;;;7.57;2.50;;;;;;;17.12;88.28;100440.34;5097544;27;20456;-68
2022/10/24 09:31:38;;;;;;;10.20;2.72;;;;;;;17.58;86.54;100439.16;5107736;27;20658;-68
2022/10/24 09:34:06;;;;;;;9.52;2.88;;;;;;;17.73;85.96;100427.22;5098559;27;20513;-68
2022/10/24 09:36:32;;;;;;;11.07;2.85;;;;;;;17.83;84.73;100442.22;5105185;27;20063;-68
2022/10/24 09:39:23;;;;;;;11.95;2.50;;;;;;;17.84;84.29;100440.41;5086093;27;20586;-68
2022/10/24 09:41:50;;;;;;;11.57;4.13;;;;;;;18.15;83.48;100438.53;5096381;27;20047;-67
2022/10/24 09:44:30;;;;;;;7.22;2.50;;;;;;;18.14;83.13;100421.81;5107177;27;20040;-67
2022/10/24 09:46:57;;;;;;;9.35;2.70;;;;;;;18.35;81.91;100425.22;5103166;27;20093;-67
2022/10/24 09:49:32;;;;;;;6.70;2.38;;;;;;;18.35;81.26;100413.75;5107105;27;20047;-67
2022/10/24 09:52:02;;;;;;;11.18;2.45;;;;;;;18.05;83.16;100419.09;5083018;27;20044;-68
2022/10/24 09:54:31;;;;;;;10.50;2.50;;;;;;;17.80;83.86;100412.47;5086711;27;20669;-68
2022/10/24 09:57:02;;;;;;;8.77;2.35;;;;;;;17.81;83.11;100419.47;5088658;27;20051;-67
2022/10/24 09:59:36;;;;;;;7.72;2.15;;;;;;;17.79;83.84;100426.69;5095929;27;20039;-67
2022/10/24 10:02:19;;;;;;;6.38;2.25;;;;;;;17.93;84.41;100429.81;5092310;27;20502;-67
2022/10/24 10:04:48;;;;;;;8.15;2.40;;;;;;;17.64;84.59;100422.69;5114675;27;20067;-67
2022/10/24 10:07:17;;;;;;;14.82;2.00;;;;;;;17.68;84.73;100424.13;5108282;27;20124;-67
2022/10/24 10:09:50;;;;;;;5.03;1.92;;;;;;;17.62;84.04;100424.66;5103148;27;20410;-67
2022/10/24 10:12:25;;;;;;;;;;;;;;;17.52;83.51;100420.09;5108833;27;20554;-68
2022/10/24 10:14:53;;;;;;;7.55;2.63;;;;;;;17.53;84.20;100421.78;5107378;27;19920;-67
2022/10/24 10:17:23;;;;;;;10.30;2.20;;;;;;;17.82;83.22;100411.34;5096607;27;20100;-67
2022/10/24 10:19:51;;;;;;;8.13;2.17;;;;;;;18.21;81.03;100404.38;5106680;27;20058;-67
2022/10/24 10:22:24;;;;;;;5.72;1.73;;;;;;;18.00;81.63;100412.38;5107546;27;20047;-67
2022/10/24 10:24:51;;;;;;;12.70;2.53;;;;;;;17.98;81.09;100424.97;5107734;27;20047;-67
2022/10/24 10:27:29;;;;;;;5.80;1.98;;;;;;;17.94;81.28;100428.00;5106326;27;20171;-68
2022/10/24 10:30:19;;;;;;;10.52;1.85;;;;;;;18.06;80.26;100440.22;5096646;27;20047;-68
2022/10/24 10:33:05;;;;;;;8.00;2.67;;;;;;;17.89;81.44;100438.16;5105802;27;20043;-68
2022/10/24 10:35:42;;;;;;;7.35;2.13;;;;;;;17.82;81.55;100437.03;5095183;27;20043;-68
2022/10/24 10:38:33;;;;;;;8.15;2.20;;;;;;;17.70;82.67;100438.91;5075385;27;20047;-67
2022/10/24 10:41:06;;;;;;;13.52;2.03;;;;;;;17.75;82.17;100446.47;5086457;27;20058;-67
2022/10/24 10:43:38;;;;;;;7.15;2.47;;;;;;;17.80;82.55;100439.81;5076338;27;20040;-67
2022/10/24 10:46:16;;;;;;;12.77;2.20;;;;;;;17.92;82.01;100437.94;5086300;27;20040;-68
2022/10/24 10:48:53;;;;;;;7.65;2.47;;;;;;;18.25;81.12;100410.25;5091542;27;20054;-68
2022/10/24 10:51:33;;;;;;;6.68;2.38;;;;;;;18.09;80.81;100424.03;5109714;27;20046;-68
2022/10/24 10:54:09;;;;;;;8.02;2.00;;;;;;;18.26;79.82;100430.47;5095223;27;20157;-67
2022/10/24 10:56:45;;;;;;;13.68;3.20;;;;;;;18.21;80.55;100436.22;5110076;27;20055;-67
2022/10/24 10:59:25;;;;;;;11.00;2.25;;;;;;;18.35;80.23;100438.50;5101058;27;20057;-67
2022/10/24 11:01:59;;;;;;;13.30;3.13;;;;;;;18.31;80.12;100439.72;5109785;27;20051;-68
2022/10/24 11:04:37;;;;;;;7.95;2.20;;;;;;;18.18;80.60;100441.78;5100367;27;20058;-67
2022/10/24 11:07:12;;;;;;;12.77;2.50;;;;;;;18.17;80.55;100442.78;5109982;27;20043;-67
2022/10/24 11:09:44;;;;;;;15.13;2.33;;;;;;;17.98;81.87;100438.22;5100147;27;20058;-67
2022/10/24 11:12:17;;;;;;;6.30;2.20;;;;;;;18.17;81.35;100431.31;5109125;27;20035;-67
2022/10/24 11:14:48;;;;;;;13.93;3.28;;;;;;;18.27;80.25;100438.31;5111209;27;20050;-67
2022/10/24 11:17:19;;;;;;;6.35;1.85;;;;;;;18.38;79.91;100440.03;5101021;27;20050;-67
2022/10/24 11:20:00;;;;;;;6.43;2.38;;;;;;;18.48;80.38;100447.03;5105231;27;20043;-68
2022/10/24 11:22:35;;;;;;;7.93;3.10;;;;;;;18.52;79.08;100439.66;5100451;27;20482;-68
2022/10/24 11:25:08;;;;;;;5.78;2.08;;;;;;;18.54;79.85;100436.88;5109237;27;20043;-68
2022/10/24 11:27:41;;;;;;;9.30;2.38;;;;;;;18.62;79.53;100434.38;5100332;27;20495;-68
2022/10/24 11:30:15;;;;;;;5.78;1.90;;;;;;;18.49;79.56;100424.81;5109857;27;20075;-68